Latest Weather Observations for Stawell

IDV60801

Issued at 10:34 am EST Monday 21 August 2017 (issued every 30 minutes, with the page automatically refreshed every 10 minutes)

About weather observations | Map of weather stations | Latest weather observations for VIC | Other Formats
Station Details ID: 079105 Name: STAWELL AERODROME Lat: -37.07 Lon: 142.74 Height: 235.36 m
Data from the previous 72 hours. | See also: Recent months at Stawell
Date/Time
EST
Temp
°C
App
Temp
°C
Dew
Point
°C
Rel
Hum
%
Delta-T
°C
Wind Press
QNH
hPa
Press
MSL
hPa
Rain since
9am
mm
Dir  Spd
km/h
Gust
km/h
Spd
kts
Gust
kts
21/10:30am 6.9 3.4 5.5 91 0.6 ENE 13 19 7 10 1014.0 1014.3 0.0
21/10:00am 6.2 3.5 5.5 95 0.3 ENE 9 13 5 7 1014.3 1014.6 0.0
21/09:30am 5.8 3.1 5.4 97 0.2 ENE 9 15 5 8 1014.7 1015.0 0.0
21/09:00am 5.4 2.6 5.3 99 0.0 ENE 9 11 5 6 1014.5 1014.8 6.8
21/08:30am 5.0 1.8 4.9 99 0.0 ENE 11 13 6 7 1014.5 1014.8 6.8
21/08:00am 4.9 1.6 4.8 99 0.0 ENE 11 15 6 8 1014.5 1014.8 6.8
21/07:30am 4.7 2.2 4.6 99 0.0 E 7 9 4 5 1014.3 1014.6 6.8
21/07:00am 4.6 1.7 4.5 99 0.0 ENE 9 11 5 6 1013.9 1014.2 6.8
21/06:30am 4.6 1.7 4.5 99 0.0 NE 9 13 5 7 1014.0 1014.3 6.4
21/06:00am 4.7 1.4 4.6 99 0.0 NE 11 15 6 8 1014.1 1014.4 6.2
21/05:30am 4.6 0.9 4.3 98 0.1 NE 13 20 7 11 1014.0 1014.3 5.8
21/05:00am 4.7 1.0 4.3 97 0.2 NE 13 19 7 10 1014.2 1014.5 5.2
21/04:30am 4.8 1.1 4.4 97 0.2 NE 13 17 7 9 1014.3 1014.6 4.8
21/04:00am 4.8 1.1 4.4 97 0.2 NE 13 17 7 9 1014.7 1015.0 4.0
21/03:30am 5.0 1.3 4.4 96 0.3 NNE 13 19 7 10 1015.2 1015.5 2.6
21/03:00am 5.2 1.9 4.5 95 0.3 NNE 11 17 6 9 1015.6 1015.9 1.6
21/02:30am 5.5 1.4 4.3 92 0.5 NNW 15 19 8 10 1016.2 1016.5 0.8
21/02:00am 6.1 1.9 3.8 85 1.0 N 15 20 8 11 1016.3 1016.6 0.2
21/01:30am 6.1 2.9 3.3 82 1.2 N 9 17 5 9 1016.4 1016.7 0.0
21/01:00am 6.5 3.8 2.8 77 1.6 NE 6 9 3 5 1016.6 1016.9 0.0
21/12:30am 6.3 3.5 2.9 79 1.4 ENE 7 9 4 5 1016.6 1016.9 0.0
21/12:00am 6.4 3.2 2.9 78 1.5 E 9 13 5 7 1016.7 1017.0 0.0
 
Date/Time
EST
Temp
°C
App
Temp
°C
Dew
Point
°C
Rel
Hum
%
Delta-T
°C
Wind Press
QNH
hPa
Press
MSL
hPa
Rain since
9am
mm
Dir  Spd
km/h
Gust
km/h
Spd
kts
Gust
kts
20/11:30pm 6.2 3.4 3.0 80 1.3 ENE 7 9 4 5 1017.2 1017.5 0.0
20/11:00pm 6.2 3.0 3.0 80 1.3 ENE 9 11 5 6 1017.5 1017.8 0.0
20/10:30pm 6.2 3.0 3.0 80 1.3 NE 9 11 5 6 1017.9 1018.2 0.0
20/10:00pm 6.3 3.1 2.9 79 1.4 ENE 9 13 5 7 1017.9 1018.2 0.0
20/09:30pm 6.3 3.1 2.8 78 1.5 NE 9 11 5 6 1018.0 1018.3 0.0
20/09:00pm 5.9 2.6 2.7 80 1.3 ENE 9 13 5 7 1018.0 1018.3 0.0
20/08:30pm 5.7 2.8 2.5 80 1.3 E 7 7 4 4 1018.4 1018.7 0.0
20/08:00pm 5.9 2.6 2.2 77 1.5 ESE 9 11 5 6 1018.4 1018.7 0.0
20/07:30pm 6.2 3.2 2.3 76 1.6 E 7 9 4 5 1018.6 1018.9 0.0
20/07:00pm 6.3 3.4 2.4 76 1.6 ESE 7 9 4 5 1019.1 1019.5 0.0
20/06:30pm 6.9 3.9 2.2 72 2.0 E 7 9 4 5 1018.9 1019.2 0.0
20/06:00pm 7.4 4.2 1.0 64 2.6 NE 7 11 4 6 1019.5 1019.9 0.0
20/05:30pm 8.0 4.4 0.5 59 3.0 ENE 9 13 5 7 1019.2 1019.6 0.0
20/05:00pm 8.2 4.6 0.4 58 3.1 NNE 9 13 5 7 1019.4 1019.8 0.0
20/04:30pm 8.5 4.0 0.0 55 3.4 NNE 13 17 7 9 1019.5 1019.9 0.0
20/04:00pm 8.8 4.1 0.8 57 3.3 N 15 24 8 13 1020.0 1020.3 0.0
20/03:30pm 9.5 4.8 0.7 54 3.6 N 15 19 8 10 1020.5 1020.8 0.0
20/03:00pm 9.5 5.4 0.1 52 3.8 NNW 11 17 6 9 1020.5 1020.8 0.0
20/02:30pm 9.0 4.3 0.7 56 3.4 NE 15 19 8 10 1020.5 1020.8 0.0
20/02:00pm 9.1 4.4 0.6 55 3.5 NE 15 19 8 10 1021.1 1021.4 0.0
20/01:30pm 8.9 5.3 0.9 57 3.3 NE 9 19 5 10 1021.9 1022.2 0.0
20/01:00pm 8.6 5.5 1.3 60 3.0 NNW 7 13 4 7 1022.5 1022.9 0.0
20/12:30pm 9.2 6.1 1.1 57 3.4 NE 7 15 4 8 1023.6 1024.0 0.0
20/12:00pm 8.0 5.0 0.7 60 2.9 N 6 13 3 7 1024.5 1024.8 0.0
20/11:30am 7.4 3.4 0.8 63 2.7 NE 11 13 6 7 1025.1 1025.4 0.0
20/11:00am 7.2 3.5 0.2 61 2.8 NE 9 13 5 7 1025.5 1025.8 0.0
20/10:30am 7.5 4.5 0.7 62 2.7 N 6 13 3 7 1025.9 1026.2 0.0
20/10:00am 7.2 5.5 2.1 70 2.1 CALM 0 0 0 0 1026.3 1026.7 0.0
20/09:30am 6.2 4.7 3.2 81 1.3 CALM 0 0 0 0 1026.6 1027.0 0.0
20/09:00am 3.3 0.5 2.3 93 0.4 ESE 6 7 3 4 1026.7 1027.1 0.2
20/08:30am 0.8 -2.2 0.5 98 0.1 ESE 6 9 3 5 1026.9 1027.3 0.2
20/08:00am 0.0 -3.3 -0.1 99 0.0 ESE 7 9 4 5 1027.0 1027.4 0.0
20/07:30am -1.5 -5.0 -1.6 99 0.0 ESE 7 9 4 5 1027.0 1027.4 0.0
20/07:00am -2.2 -5.7 -2.5 98 0.0 ESE 6 7 3 4 1026.9 1027.3 0.0
20/06:30am -2.1 -5.7 -2.4 98 0.0 ESE 7 7 4 4 1026.8 1027.2 0.0
20/06:00am -2.3 -4.6 -2.6 98 0.0 CALM 0 0 0 0 1026.9 1027.3 0.0
20/05:30am -1.9 -4.9 -2.2 98 0.0 ESE 4 6 2 3 1026.7 1027.1 0.0
20/05:00am -1.4 -4.4 -1.5 99 0.0 ESE 4 6 2 3 1026.5 1026.9 0.0
20/04:30am -2.1 -4.8 -2.5 97 0.0 ESE 2 7 1 4 1026.7 1027.1 0.0
20/04:00am -0.8 -4.3 -1.1 98 0.1 ESE 7 9 4 5 1026.7 1027.1 0.0
20/03:30am -1.1 -5.0 -1.4 98 0.1 ESE 9 13 5 7 1026.6 1027.0 0.0
20/03:00am -0.7 -3.9 -0.8 99 0.0 ESE 6 6 3 3 1026.9 1027.3 0.0
20/02:30am -0.6 -3.8 -0.7 99 0.0 ESE 6 7 3 4 1026.9 1027.3 0.0
20/02:00am -0.9 -3.1 -1.2 98 0.1 CALM 0 0 0 0 1027.0 1027.4 0.0
20/01:30am -0.9 -3.8 -1.3 97 0.1 ESE 4 7 2 4 1027.2 1027.6 0.0
20/01:00am -0.5 -2.6 -0.9 97 0.1 CALM 0 0 0 0 1027.0 1027.4 0.0
20/12:30am 0.5 -2.6 0.1 97 0.1 ESE 6 7 3 4 1027.1 1027.5 0.0
20/12:00am 1.3 -1.4 0.6 95 0.3 ESE 4 6 2 3 1027.4 1027.8 0.0
 
Date/Time
EST
Temp
°C
App
Temp
°C
Dew
Point
°C
Rel
Hum
%
Delta-T
°C
Wind Press
QNH
hPa
Press
MSL
hPa
Rain since
9am
mm
Dir  Spd
km/h
Gust
km/h
Spd
kts
Gust
kts
19/11:30pm 2.0 -0.9 1.4 96 0.2 E 6 9 3 5 1027.6 1028.0 0.0
19/11:00pm 1.9 -1.2 1.3 96 0.2 E 7 11 4 6 1027.9 1028.3 0.0
19/10:30pm 2.0 -1.0 1.1 94 0.3 S 6 9 3 5 1028.1 1028.5 0.0
19/10:00pm 1.0 -2.6 0.3 95 0.3 SSW 9 13 5 7 1028.3 1028.7 0.0
19/09:30pm 2.1 -0.8 1.2 94 0.3 S 6 7 3 4 1028.1 1028.5 0.0
19/09:00pm 2.5 -1.0 1.2 91 0.5 WSW 9 9 5 5 1028.1 1028.5 0.0
19/08:30pm 3.9 0.4 1.3 83 1.0 WSW 9 13 5 7 1027.9 1028.3 0.0
19/08:00pm 4.6 2.5 2.0 83 1.0 SSE 2 7 1 4 1027.3 1027.7 0.0
19/07:30pm 5.2 2.0 3.1 86 0.9 E 9 11 5 6 1027.0 1027.4 0.0
19/07:00pm 5.4 2.6 3.3 86 0.9 SSE 7 9 4 5 1027.2 1027.6 0.0
19/06:30pm 6.2 3.4 3.2 81 1.3 SE 7 9 4 5 1027.1 1027.5 0.0
19/06:00pm 7.8 4.6 3.3 73 1.9 SSE 9 11 5 6 1027.1 1027.5 0.0
19/05:30pm 8.3 3.6 3.2 70 2.2 SSW 17 24 9 13 1027.4 1027.8 0.0
19/05:00pm 9.2 5.1 2.5 63 2.9 S 13 20 7 11 1027.1 1027.5 0.0
19/04:30pm 8.8 4.6 3.6 70 2.3 SW 15 20 8 11 1027.2 1027.6 0.0
19/04:00pm 9.8 4.9 1.9 58 3.3 SSW 17 26 9 14 1026.8 1027.2 0.0
19/03:30pm 10.5 6.5 2.6 58 3.4 SW 13 17 7 9 1026.8 1027.2 0.0
19/03:00pm 9.8 4.6 2.4 60 3.2 SW 19 28 10 15 1027.0 1027.4 0.0
19/02:30pm 10.4 6.5 3.2 61 3.2 S 13 20 7 11 1026.8 1027.2 0.0
19/02:00pm 9.0 3.5 1.9 61 3.0 SSW 20 35 11 19 1026.9 1027.3 0.0
19/01:30pm 9.6 4.3 2.0 59 3.2 SSW 19 28 10 15 1026.9 1027.3 0.0
19/01:00pm 9.7 4.3 2.3 60 3.1 SSE 20 30 11 16 1027.1 1027.5 0.0
19/12:30pm 9.6 5.2 2.7 62 3.0 SSW 15 22 8 12 1027.3 1027.7 0.0
19/12:00pm 9.2 4.3 2.3 62 2.9 SSW 17 26 9 14 1027.5 1027.9 0.0
19/11:30am 8.4 3.5 2.0 64 2.7 SSW 17 26 9 14 1027.7 1028.1 0.0
19/11:00am 7.9 3.0 1.7 65 2.6 SSW 17 28 9 15 1027.6 1028.0 0.0
19/10:30am 8.2 3.0 2.2 66 2.5 SSW 19 32 10 17 1027.7 1028.1 0.0
19/10:00am 7.6 2.9 2.9 72 2.0 SSW 17 26 9 14 1027.7 1028.1 0.0
19/09:30am 6.9 1.5 2.4 73 1.9 S 20 30 11 16 1027.4 1027.8 0.0
19/09:00am 6.5 2.8 2.6 76 1.6 SSW 11 15 6 8 1027.0 1027.4 1.8
19/08:30am 5.9 3.0 2.4 78 1.4 SW 7 9 4 5 1026.7 1027.1 1.8
19/08:00am 4.7 1.8 2.4 85 0.9 SW 7 9 4 5 1026.2 1026.6 1.8
19/07:30am 2.9 -0.2 1.3 89 0.6 W 7 7 4 4 1025.7 1026.0 1.8
19/07:00am 4.2 0.8 2.1 86 0.8 SSW 9 13 5 7 1025.3 1025.6 1.8
19/06:30am 3.5 -0.4 1.4 86 0.8 WSW 11 24 6 13 1024.8 1025.1 1.8
19/06:00am 2.9 -0.2 1.3 89 0.6 S 7 11 4 6 1024.4 1024.7 1.8
19/05:30am 2.3 -0.6 1.3 93 0.4 S 6 7 3 4 1023.9 1024.3 1.8
19/05:00am 2.4 -0.6 1.7 95 0.3 SW 7 11 4 6 1023.6 1024.0 1.8
19/04:30am 2.5 -0.5 1.0 90 0.6 SW 6 7 3 4 1023.3 1023.7 1.8
19/04:00am 3.0 0.9 1.4 89 0.6 SW 2 6 1 3 1023.0 1023.4 1.8
19/03:30am 4.4 1.0 1.6 82 1.1 SW 9 13 5 7 1022.8 1023.2 1.8
19/03:00am 5.0 1.2 2.0 81 1.2 WSW 11 17 6 9 1022.6 1023.0 1.8
19/02:30am 5.2 1.5 2.2 81 1.2 WSW 11 15 6 8 1022.7 1023.1 1.8
19/02:00am 4.9 1.2 2.4 84 1.0 WSW 11 15 6 8 1022.7 1023.1 1.8
19/01:30am 5.0 1.7 2.2 82 1.1 WSW 9 13 5 7 1022.6 1023.0 1.8
19/01:00am 5.0 1.7 2.4 83 1.1 WSW 9 13 5 7 1022.5 1022.9 1.8
19/12:30am 5.4 1.8 2.8 83 1.1 SW 11 13 6 7 1022.4 1022.7 1.8
19/12:00am 5.9 2.3 2.9 81 1.3 WSW 11 17 6 9 1022.1 1022.4 1.8
 
Date/Time
EST
Temp
°C
App
Temp
°C
Dew
Point
°C
Rel
Hum
%
Delta-T
°C
Wind Press
QNH
hPa
Press
MSL
hPa
Rain since
9am
mm
Dir  Spd
km/h
Gust
km/h
Spd
kts
Gust
kts
18/11:30pm 6.6 2.2 2.9 77 1.6 WSW 15 20 8 11 1022.1 1022.4 1.8
18/11:00pm 6.4 2.8 2.9 78 1.5 WSW 11 13 6 7 1022.1 1022.4 1.8
18/10:30pm 6.7 2.7 2.8 76 1.6 WSW 13 20 7 11 1022.0 1022.3 1.8
18/10:00pm 7.0 2.6 2.7 74 1.8 SW 15 22 8 12 1021.8 1022.1 1.8
18/09:30pm 6.6 2.6 2.9 77 1.6 SW 13 24 7 13 1021.3 1021.6 1.8
18/09:00pm 6.8 2.8 2.7 75 1.7 SW 13 20 7 11 1021.2 1021.5 1.8
18/08:30pm 6.7 2.7 2.6 75 1.7 WSW 13 20 7 11 1020.8 1021.1 1.8
18/08:00pm 6.6 3.9 3.8 82 1.2 SW 7 13 4 7 1020.9 1021.2 1.8
18/07:30pm 6.6 3.6 4.1 84 1.1 NNE 9 13 5 7 1020.3 1020.6 1.8
18/07:00pm 6.1 3.8 4.7 91 0.6 NNW 6 9 3 5 1019.6 1020.0 1.8
18/06:30pm 6.1 3.7 4.4 89 0.7 ESE 6 9 3 5 1019.0 1019.4 1.8
18/06:00pm 6.3 2.5 4.1 86 1.0 S 13 20 7 11 1018.7 1019.0 1.8
18/05:30pm 7.0 1.8 3.8 80 1.4 S 20 30 11 16 1018.4 1018.7 1.8
18/05:00pm 8.5 4.9 3.1 69 2.3 SW 11 19 6 10 1017.5 1017.8 1.8
18/04:30pm 7.5 3.6 3.6 76 1.7 SW 13 20 7 11 1017.5 1017.8 1.8
18/04:00pm 6.6 2.1 4.4 86 1.0 SW 17 28 9 15 1016.9 1017.2 1.8
18/03:41pm 7.5 1.7 2.4 70 2.1 SW 22 48 12 26 1017.0 1017.3 1.4
18/03:30pm 10.2 5.0 2.6 59 3.3 SW 19 33 10 18 1016.3 1016.6 1.4
18/03:00pm 9.9 4.7 3.4 64 2.9 WSW 20 35 11 19 1015.8 1016.1 1.4
18/02:30pm 9.4 5.3 4.2 70 2.3 W 15 24 8 13 1015.3 1015.6 1.4
18/02:00pm 7.6 3.5 4.4 80 1.4 WSW 15 28 8 15 1015.5 1015.8 1.4
18/01:30pm 6.3 2.6 4.3 87 0.9 WSW 13 24 7 13 1015.0 1015.3 1.4
18/01:00pm 5.3 -1.3 4.1 92 0.5 SW 28 52 15 28 1015.6 1015.9 1.0
18/12:42pm 7.6 0.8 2.9 72 2.0 SSW 28 48 15 26 1014.6 1014.9 0.0
18/12:30pm 9.2 3.1 3.0 65 2.7 SW 24 41 13 22 1014.3 1014.6 0.0
18/12:00pm 10.0 4.2 2.1 58 3.4 WSW 22 41 12 22 1014.0 1014.3 0.0
18/11:30am 9.7 3.7 3.4 65 2.8 WSW 24 37 13 20 1013.7 1014.0 0.0
18/11:00am 8.1 3.0 4.3 77 1.7 WSW 20 33 11 18 1013.9 1014.2 0.0

Other Formats:

Comma delimited format used in spreadsheet applications
http://www.bom.gov.au/fwo/IDV60801/IDV60801.94836.axf

JavaScript Object Notation format (JSON) in row-major order
http://www.bom.gov.au/fwo/IDV60801/IDV60801.94836.json